createdAt,value
2023-02-05T00:01:37.883Z,42.97
2023-02-05T00:04:06.701Z,48.60
2023-02-05T00:06:35.285Z,37.43
2023-02-05T00:09:04.118Z,53.83
2023-02-05T00:11:32.666Z,43.40
2023-02-05T00:14:01.394Z,53.47
2023-02-05T00:16:30.328Z,43.40
2023-02-05T00:19:00.197Z,46.67
2023-02-05T00:21:29.015Z,41.77
2023-02-05T00:23:57.545Z,52.20
2023-02-05T00:26:26.224Z,40.33
2023-02-05T00:28:54.981Z,41.13
2023-02-05T00:31:24.304Z,46.07
2023-02-05T00:33:53.821Z,50.03
2023-02-05T00:36:24.122Z,42.47
2023-02-05T00:38:53.449Z,46.60
2023-02-05T00:41:22.215Z,52.80
2023-02-05T00:43:50.862Z,52.10
2023-02-05T00:46:20.161Z,52.43
2023-02-05T00:48:48.780Z,45.97
2023-02-05T00:51:17.309Z,39.60
2023-02-05T00:53:47.253Z,46.77
2023-02-05T00:56:15.900Z,47.37
2023-02-05T00:58:47.525Z,47.83
2023-02-05T01:01:16.593Z,49.50
2023-02-05T01:03:45.911Z,50.43
2023-02-05T01:06:14.618Z,50.77
2023-02-05T01:08:43.464Z,48.80
2023-02-05T01:11:14.965Z,49.60
2023-02-05T01:13:43.795Z,51.97
2023-02-05T01:16:12.457Z,54.43
2023-02-05T01:18:41.497Z,61.27
2023-02-05T01:21:10.289Z,61.90
2023-02-05T01:23:39.930Z,47.20
2023-02-05T01:26:08.531Z,49.20
2023-02-05T01:28:38.500Z,57.50
2023-02-05T01:31:07.533Z,46.17
2023-02-05T01:33:36.340Z,55.97
2023-02-05T01:36:05.296Z,47.50
2023-02-05T01:38:34.324Z,39.87
2023-02-05T01:41:03.225Z,37.30
2023-02-05T01:43:32.071Z,46.10
2023-02-05T01:46:21.252Z,44.93
2023-02-05T01:48:55.756Z,45.00
2023-02-05T01:51:25.841Z,45.73
2023-02-05T01:53:54.696Z,37.77
2023-02-05T01:56:26.969Z,49.93
2023-02-05T01:58:59.909Z,32.93
2023-02-05T02:01:32.617Z,42.87
2023-02-05T02:04:04.819Z,42.13
2023-02-05T02:06:35.290Z,45.73
2023-02-05T02:09:06.448Z,50.67
2023-02-05T02:11:40.017Z,41.07
2023-02-05T02:14:11.117Z,39.47
2023-02-05T02:16:42.175Z,43.43
2023-02-05T02:19:18.209Z,45.30
2023-02-05T02:22:04.954Z,48.07
2023-02-05T02:25:20.811Z,45.53
2023-02-05T02:27:55.637Z,43.10
2023-02-05T02:30:27.676Z,49.47
2023-02-05T02:33:07.998Z,40.93
2023-02-05T02:35:46.233Z,43.47
2023-02-05T02:38:23.193Z,37.90
2023-02-05T02:40:55.343Z,42.67
2023-02-05T02:43:35.578Z,37.77
2023-02-05T02:46:08.529Z,36.23
2023-02-05T02:48:40.854Z,33.60
2023-02-05T02:51:13.370Z,36.80
2023-02-05T02:53:47.411Z,32.50
2023-02-05T02:56:18.613Z,40.93
2023-02-05T02:58:51.680Z,34.67
2023-02-05T03:01:25.162Z,36.53
2023-02-05T03:03:58.828Z,36.13
2023-02-05T03:06:30.599Z,29.40
2023-02-05T03:09:02.953Z,32.80
2023-02-05T03:11:31.702Z,34.03
2023-02-05T03:14:01.765Z,34.57
2023-02-05T03:16:34.870Z,38.83
2023-02-05T03:19:05.517Z,39.43
2023-02-05T03:21:37.706Z,35.70
2023-02-05T03:24:07.217Z,33.40
2023-02-05T03:26:38.322Z,34.37
2023-02-05T03:29:29.512Z,37.60
2023-02-05T03:32:13.672Z,27.23
2023-02-05T03:34:56.705Z,24.57
2023-02-05T03:37:40.715Z,33.30
2023-02-05T03:40:17.506Z,28.40
2023-02-05T03:42:58.932Z,27.60
2023-02-05T03:45:37.155Z,23.17
2023-02-05T03:48:15.559Z,25.40
2023-02-05T03:50:52.822Z,24.67
2023-02-05T03:53:27.172Z,24.87
2023-02-05T03:56:04.441Z,23.73
2023-02-05T03:58:39.199Z,26.97
2023-02-05T04:01:12.557Z,24.77
2023-02-05T04:03:43.371Z,30.83
2023-02-05T04:06:13.643Z,26.33
2023-02-05T04:08:43.951Z,21.50
2023-02-05T04:11:13.298Z,22.20
2023-02-05T04:13:43.743Z,19.30
2023-02-05T04:16:15.000Z,18.80
2023-02-05T04:18:43.906Z,19.63
2023-02-05T04:21:12.738Z,27.93
2023-02-05T04:23:43.657Z,17.90
2023-02-05T04:26:13.365Z,17.37
2023-02-05T04:28:48.927Z,17.83
2023-02-05T04:31:18.885Z,10.93
2023-02-05T04:33:47.862Z,17.33
2023-02-05T04:36:18.603Z,10.10
2023-02-05T04:38:47.411Z,17.53
2023-02-05T04:41:16.648Z,12.87
2023-02-05T04:43:45.138Z,15.37
2023-02-05T04:46:13.688Z,8.90
2023-02-05T04:48:43.618Z,13.20
2023-02-05T04:51:14.360Z,11.27
2023-02-05T04:53:43.104Z,16.77
2023-02-05T04:56:13.996Z,17.73
2023-02-05T04:58:43.184Z,21.13
2023-02-05T05:01:14.290Z,13.13
2023-02-05T05:03:45.173Z,11.47
2023-02-05T05:06:14.501Z,12.60
2023-02-05T05:08:43.280Z,12.57
2023-02-05T05:11:14.115Z,10.83
2023-02-05T05:13:43.084Z,10.43
2023-02-05T05:16:13.346Z,8.73
2023-02-05T05:18:43.409Z,8.03
2023-02-05T05:21:12.349Z,12.53
2023-02-05T05:23:40.853Z,13.37
2023-02-05T05:26:12.394Z,9.23
2023-02-05T05:28:41.165Z,5.00
2023-02-05T05:31:11.463Z,4.13
2023-02-05T05:33:39.994Z,7.27
2023-02-05T05:36:10.537Z,5.13
2023-02-05T05:38:39.107Z,3.93
2023-02-05T05:41:27.405Z,6.30
2023-02-05T05:43:56.122Z,10.30
2023-02-05T05:46:27.069Z,4.97
2023-02-05T05:48:57.175Z,6.90
2023-02-05T05:51:28.242Z,4.10
2023-02-05T05:53:57.481Z,6.37
2023-02-05T05:56:26.021Z,8.97
2023-02-05T05:58:54.430Z,10.63
2023-02-05T06:01:23.072Z,8.73
2023-02-05T06:03:51.783Z,3.00
2023-02-05T06:06:20.469Z,11.53
2023-02-05T06:08:50.293Z,6.97
2023-02-05T06:11:18.769Z,8.13
2023-02-05T06:13:47.286Z,13.40
2023-02-05T06:16:15.983Z,7.00
2023-02-05T06:18:44.392Z,8.70
2023-02-05T06:21:12.893Z,16.00
2023-02-05T06:23:41.357Z,11.53
2023-02-05T06:26:11.193Z,7.83
2023-02-05T06:28:39.605Z,4.73
2023-02-05T06:31:08.263Z,4.07
2023-02-05T06:33:36.751Z,10.53
2023-02-05T06:36:05.901Z,3.40
2023-02-05T06:38:34.384Z,4.70
2023-02-05T06:41:02.846Z,12.13
2023-02-05T06:43:32.650Z,8.30
2023-02-05T06:46:01.143Z,6.60
2023-02-05T06:48:29.663Z,1.40
2023-02-05T06:50:58.148Z,2.20
2023-02-05T06:53:26.624Z,6.03
2023-02-05T06:55:59.156Z,9.43
2023-02-05T06:58:27.680Z,5.13
2023-02-05T07:00:57.561Z,3.80
2023-02-05T07:03:25.982Z,7.53
2023-02-05T07:05:54.513Z,9.27
2023-02-05T07:08:22.974Z,4.50
2023-02-05T07:10:51.411Z,12.00
2023-02-05T07:13:19.889Z,11.93
2023-02-05T07:15:49.586Z,17.17
2023-02-05T07:18:19.531Z,11.23
2023-02-05T07:20:48.150Z,9.27
2023-02-05T07:23:16.601Z,3.37
2023-02-05T07:25:45.177Z,8.93
2023-02-05T07:28:13.756Z,6.57
2023-02-05T07:30:42.435Z,17.20
2023-02-05T07:33:10.889Z,9.43
2023-02-05T07:35:40.774Z,10.03
2023-02-05T07:38:10.837Z,9.17
2023-02-05T07:40:39.272Z,9.10
2023-02-05T07:43:07.691Z,17.37
2023-02-05T07:45:36.458Z,11.57
2023-02-05T07:48:05.286Z,12.50
2023-02-05T07:50:33.766Z,9.73
2023-02-05T07:53:03.679Z,14.53
2023-02-05T07:55:32.514Z,12.93
2023-02-05T07:58:01.201Z,9.40
2023-02-05T08:00:29.638Z,11.07
2023-02-05T08:02:58.130Z,11.30
2023-02-05T08:05:26.591Z,15.57
2023-02-05T08:07:55.200Z,12.73
2023-02-05T08:10:25.263Z,13.57
2023-02-05T08:12:53.823Z,9.27
2023-02-05T08:15:22.390Z,13.60
2023-02-05T08:17:51.080Z,12.07
2023-02-05T08:20:19.853Z,22.27
2023-02-05T08:22:48.385Z,12.57
2023-02-05T08:25:17.332Z,14.40
2023-02-05T08:27:48.002Z,36.03
2023-02-05T08:30:21.700Z,17.60
2023-02-05T08:32:51.096Z,13.53
2023-02-05T08:35:19.769Z,19.83
2023-02-05T08:37:48.538Z,17.67
2023-02-05T08:40:17.107Z,18.87
2023-02-05T08:42:48.592Z,18.00
2023-02-05T08:45:17.309Z,18.13
2023-02-05T08:47:45.806Z,18.23
2023-02-05T08:50:15.496Z,14.87
2023-02-05T08:52:43.982Z,15.60
2023-02-05T08:55:12.698Z,13.20
2023-02-05T08:57:41.705Z,19.47
2023-02-05T09:00:12.988Z,20.13
2023-02-05T09:02:42.573Z,20.70
2023-02-05T09:05:11.122Z,22.37
2023-02-05T09:07:40.454Z,25.83
2023-02-05T09:10:10.037Z,19.77
2023-02-05T09:12:38.941Z,23.03
2023-02-05T09:15:08.708Z,13.40
2023-02-05T09:17:38.574Z,21.53
2023-02-05T09:20:07.898Z,19.03
2023-02-05T09:22:36.466Z,20.77
2023-02-05T09:25:05.374Z,21.80
2023-02-05T09:27:34.269Z,21.40
2023-02-05T09:30:02.825Z,26.67
2023-02-05T09:32:31.434Z,24.13
2023-02-05T09:35:01.362Z,17.13
2023-02-05T09:37:30.167Z,28.60
2023-02-05T09:42:58.412Z,21.83
2023-02-05T09:45:39.706Z,22.77
2023-02-05T09:48:32.861Z,17.23
2023-02-05T09:51:03.421Z,31.23
2023-02-05T09:53:38.312Z,19.43
2023-02-05T09:56:10.224Z,27.90
2023-02-05T09:58:48.576Z,24.27
2023-02-05T10:01:23.577Z,22.23
2023-02-05T10:03:57.061Z,21.20
2023-02-05T10:06:54.438Z,22.80
2023-02-05T10:09:39.416Z,11.87
2023-02-05T10:12:19.100Z,11.97
2023-02-05T10:15:00.279Z,12.30
2023-02-05T10:17:43.757Z,12.67
2023-02-05T10:20:31.871Z,17.23
2023-02-05T10:23:13.829Z,14.53
2023-02-05T10:26:06.406Z,12.87
2023-02-05T10:28:53.982Z,20.50
2023-02-05T10:31:36.947Z,21.87
2023-02-05T10:34:17.885Z,17.83
2023-02-05T10:36:50.103Z,17.10
2023-02-05T10:39:23.153Z,23.70
2023-02-05T10:41:57.518Z,19.47
2023-02-05T10:44:31.787Z,15.27
2023-02-05T10:47:05.898Z,25.53
2023-02-05T10:49:46.032Z,14.53
2023-02-05T10:52:16.433Z,21.70
2023-02-05T10:54:47.206Z,19.97
2023-02-05T10:57:17.922Z,7.93
2023-02-05T10:59:54.494Z,11.53
2023-02-05T11:02:26.448Z,23.07
2023-02-05T11:05:02.021Z,22.03
2023-02-05T11:07:35.282Z,19.70
2023-02-05T11:10:17.121Z,24.37
2023-02-05T11:12:46.807Z,17.37
2023-02-05T11:15:24.760Z,12.67
2023-02-05T11:17:55.429Z,11.97
2023-02-05T11:20:28.586Z,16.40
2023-02-05T11:23:09.184Z,20.93
2023-02-05T11:25:50.900Z,17.20
2023-02-05T11:28:25.514Z,18.70
2023-02-05T11:30:55.135Z,16.67
2023-02-05T11:33:31.208Z,13.77
2023-02-05T11:36:02.931Z,23.40
2023-02-05T11:38:45.150Z,14.33
2023-02-05T11:41:28.272Z,12.47
2023-02-05T11:43:58.451Z,19.93
2023-02-05T11:46:29.718Z,14.57
2023-02-05T11:49:00.892Z,21.17
2023-02-05T11:51:40.197Z,23.90
2023-02-05T11:54:18.723Z,17.53
2023-02-05T11:57:03.474Z,21.03
2023-02-05T11:59:32.747Z,16.13
2023-02-05T12:02:29.373Z,13.77
2023-02-05T12:05:03.729Z,11.50
2023-02-05T12:07:39.279Z,9.27
2023-02-05T12:10:19.084Z,19.00
2023-02-05T12:13:00.997Z,18.10
2023-02-05T12:15:37.398Z,17.87
2023-02-05T12:18:20.942Z,17.67
2023-02-05T12:21:01.172Z,19.17
2023-02-05T12:23:42.249Z,19.63
2023-02-05T12:26:27.046Z,19.27
2023-02-05T12:29:18.009Z,13.57
2023-02-05T12:31:57.680Z,23.60
2023-02-05T12:34:32.761Z,21.63
2023-02-05T12:37:24.719Z,21.20
2023-02-05T12:39:55.414Z,14.97
2023-02-05T12:42:32.987Z,11.47
2023-02-05T12:45:19.764Z,17.40
2023-02-05T12:48:02.612Z,20.50
2023-02-05T12:50:43.897Z,16.93
2023-02-05T12:53:28.144Z,21.37
2023-02-05T12:56:17.081Z,18.60
2023-02-05T12:58:49.914Z,18.37
2023-02-05T13:01:24.635Z,19.50
2023-02-05T13:03:59.572Z,17.77
2023-02-05T13:06:34.248Z,21.90
2023-02-05T13:09:06.839Z,22.30
2023-02-05T13:11:39.668Z,15.43
2023-02-05T13:14:16.530Z,16.40
2023-02-05T13:16:51.000Z,20.43
2023-02-05T13:19:27.455Z,17.43
2023-02-05T13:22:17.901Z,20.80
2023-02-05T13:25:07.421Z,16.40
2023-02-05T13:27:58.631Z,12.93
2023-02-05T13:30:30.720Z,18.13
2023-02-05T13:33:05.051Z,20.70
2023-02-05T13:35:43.671Z,15.17
2023-02-05T13:38:45.801Z,17.30
2023-02-05T13:41:30.304Z,12.00
2023-02-05T13:44:21.794Z,26.13
2023-02-05T13:47:19.754Z,12.27
2023-02-05T13:50:27.089Z,26.83
2023-02-05T13:53:15.211Z,20.03
2023-02-05T13:56:04.559Z,19.30
2023-02-05T13:58:36.731Z,15.90
2023-02-05T14:01:14.240Z,20.13
2023-02-05T14:03:56.289Z,22.23
2023-02-05T14:06:31.828Z,23.43
2023-02-05T14:09:04.753Z,14.27
2023-02-05T14:11:54.460Z,15.37
2023-02-05T14:14:26.813Z,15.17
2023-02-05T14:16:56.502Z,11.67
2023-02-05T14:19:27.823Z,17.33
2023-02-05T14:22:11.225Z,16.90
2023-02-05T14:24:46.453Z,14.27
2023-02-05T14:27:37.154Z,22.07
2023-02-05T14:30:38.584Z,15.27
2023-02-05T14:33:32.665Z,21.73
2023-02-05T14:36:31.632Z,22.43
2023-02-05T14:39:08.056Z,16.50
2023-02-05T14:41:51.632Z,17.37
2023-02-05T14:44:24.904Z,22.33
2023-02-05T14:47:03.533Z,25.60
2023-02-05T14:49:41.410Z,15.47
2023-02-05T14:52:27.128Z,20.10
2023-02-05T14:55:01.027Z,20.10
2023-02-05T14:57:39.275Z,29.93
2023-02-05T15:00:22.338Z,23.37
2023-02-05T15:03:21.570Z,21.37
2023-02-05T15:05:56.593Z,16.67
2023-02-05T15:08:42.094Z,28.53
2023-02-05T15:11:19.377Z,15.50
2023-02-05T15:14:21.349Z,26.10
2023-02-05T15:17:29.368Z,27.83
2023-02-05T15:20:02.386Z,28.57
2023-02-05T15:22:35.569Z,18.90
2023-02-05T15:25:10.371Z,24.30
2023-02-05T15:27:45.833Z,25.10
2023-02-05T15:30:19.231Z,17.80
2023-02-05T15:32:52.008Z,27.10
2023-02-05T15:35:23.011Z,24.43
2023-02-05T15:37:55.894Z,29.17
2023-02-05T15:40:28.400Z,22.93
2023-02-05T15:43:00.017Z,24.47
2023-02-05T15:45:30.806Z,18.03
2023-02-05T15:48:01.401Z,21.17
2023-02-05T15:50:31.301Z,20.57
2023-02-05T15:53:00.554Z,23.47
2023-02-05T15:55:29.614Z,30.20
2023-02-05T15:58:03.316Z,25.17
2023-02-05T16:00:34.830Z,24.70
2023-02-05T16:03:04.937Z,12.30
2023-02-05T16:05:34.182Z,30.40
2023-02-05T16:08:05.302Z,19.03
2023-02-05T16:10:35.410Z,22.43
2023-02-05T16:13:07.219Z,24.40
2023-02-05T16:15:40.380Z,24.93
2023-02-05T16:18:16.073Z,34.57
2023-02-05T16:20:49.234Z,22.87
2023-02-05T16:23:24.644Z,33.73
2023-02-05T16:25:56.801Z,27.33
2023-02-05T16:28:37.576Z,31.70
2023-02-05T16:31:08.393Z,27.97
2023-02-05T16:33:40.843Z,28.10
2023-02-05T16:36:18.262Z,18.03
2023-02-05T16:38:51.696Z,21.03
2023-02-05T16:41:24.110Z,20.47
2023-02-05T16:43:55.466Z,26.73
2023-02-05T16:46:26.862Z,24.97
2023-02-05T16:48:57.695Z,17.27
2023-02-05T16:51:36.324Z,25.07
2023-02-05T16:54:26.864Z,25.57
2023-02-05T16:56:59.982Z,28.87
2023-02-05T16:59:33.022Z,31.10
2023-02-05T17:02:03.259Z,32.57
2023-02-05T17:04:34.924Z,29.03
2023-02-05T17:07:05.518Z,32.67
2023-02-05T17:09:36.455Z,18.60
2023-02-05T17:12:36.442Z,24.77
2023-02-05T17:15:36.451Z,28.67
2023-02-05T17:18:30.745Z,19.97
2023-02-05T17:21:22.330Z,25.73
2023-02-05T17:23:51.152Z,35.20
2023-02-05T17:26:20.632Z,38.30
2023-02-05T17:28:53.220Z,21.77
2023-02-05T17:31:26.232Z,18.33
2023-02-05T17:33:56.223Z,30.33
2023-02-05T17:36:25.377Z,29.13
2023-02-05T17:38:54.362Z,53.10
2023-02-05T17:41:42.087Z,23.27
2023-02-05T17:44:12.860Z,25.20
2023-02-05T17:46:43.402Z,59.00
2023-02-05T17:49:12.054Z,33.17
2023-02-05T17:51:42.477Z,18.67
2023-02-05T17:54:15.736Z,34.30
2023-02-05T17:56:46.743Z,24.90
2023-02-05T17:59:17.398Z,19.27
2023-02-05T18:01:48.162Z,42.33
2023-02-05T18:04:18.639Z,26.77
2023-02-05T18:06:49.604Z,26.13
2023-02-05T18:09:19.836Z,26.53
2023-02-05T18:11:48.371Z,39.40
2023-02-05T18:14:16.949Z,25.13
2023-02-05T18:16:47.141Z,28.63
2023-02-05T18:19:15.674Z,22.93
2023-02-05T18:21:47.018Z,24.57
2023-02-05T18:24:15.482Z,27.13
2023-02-05T18:26:44.129Z,32.17
2023-02-05T18:29:12.576Z,17.57
2023-02-05T18:31:41.108Z,23.77
2023-02-05T18:34:10.915Z,28.07
2023-02-05T18:36:39.404Z,19.73
2023-02-05T18:39:09.754Z,34.77
2023-02-05T18:41:38.918Z,35.83
2023-02-05T18:44:07.412Z,17.80
2023-02-05T18:46:35.967Z,27.57
2023-02-05T18:49:04.513Z,26.13
2023-02-05T18:51:34.341Z,23.53
2023-02-05T18:54:02.763Z,31.33
2023-02-05T18:56:31.635Z,26.50
2023-02-05T18:59:02.922Z,18.00
2023-02-05T19:01:32.654Z,16.93
2023-02-05T19:04:02.843Z,37.13
2023-02-05T19:06:31.749Z,21.40
2023-02-05T19:09:01.896Z,24.03
2023-02-05T19:11:31.497Z,22.77
2023-02-05T19:14:02.665Z,15.07
2023-02-05T19:16:32.637Z,21.97
2023-02-05T19:19:01.576Z,21.43
2023-02-05T19:21:31.792Z,26.63
2023-02-05T19:24:05.555Z,27.83
2023-02-05T19:26:36.155Z,23.10
2023-02-05T19:29:06.623Z,26.40
2023-02-05T19:31:37.386Z,26.77
2023-02-05T19:34:06.561Z,25.03
2023-02-05T19:36:35.245Z,28.17
2023-02-05T19:39:07.721Z,25.03
2023-02-05T19:41:37.959Z,23.30
2023-02-05T19:44:08.848Z,23.73
2023-02-05T19:46:39.662Z,22.67
2023-02-05T19:49:12.562Z,23.93
2023-02-05T19:51:41.128Z,33.80
2023-02-05T19:54:11.025Z,24.30
2023-02-05T19:56:39.645Z,31.58
2023-02-05T19:59:08.258Z,35.72
2023-02-05T20:01:39.072Z,29.37
2023-02-05T20:04:09.792Z,27.60
2023-02-05T20:06:39.481Z,26.10
2023-02-05T20:09:11.847Z,21.63
2023-02-05T20:11:41.425Z,19.67
2023-02-05T20:14:11.254Z,29.30
2023-02-05T20:16:41.137Z,34.30
2023-02-05T20:19:12.592Z,41.67
2023-02-05T20:21:41.360Z,38.27
2023-02-05T20:24:11.438Z,27.33
2023-02-05T20:26:40.837Z,17.53
2023-02-05T20:29:28.426Z,23.70
2023-02-05T20:31:58.582Z,20.33
2023-02-05T20:34:30.980Z,20.10
2023-02-05T20:37:04.209Z,22.60
2023-02-05T20:39:38.475Z,28.13
2023-02-05T20:42:07.225Z,31.63
2023-02-05T20:44:37.072Z,33.67
2023-02-05T20:47:07.215Z,24.23
2023-02-05T20:49:36.289Z,17.63
2023-02-05T20:52:05.168Z,29.00
2023-02-05T20:54:35.168Z,23.20
2023-02-05T20:57:03.961Z,22.43
2023-02-05T20:59:33.758Z,25.80
2023-02-05T21:02:02.520Z,23.63
2023-02-05T21:04:31.742Z,21.70
2023-02-05T21:07:00.842Z,37.93
2023-02-05T21:09:29.390Z,21.27
2023-02-05T21:11:59.176Z,31.83
2023-02-05T21:14:27.882Z,22.27
2023-02-05T21:16:56.391Z,22.27
2023-02-05T21:19:24.970Z,36.90
2023-02-05T21:21:53.604Z,24.43
2023-02-05T21:24:22.102Z,36.67
2023-02-05T21:26:51.177Z,27.00
2023-02-05T21:29:22.281Z,26.80
2023-02-05T21:31:52.989Z,24.57
2023-02-05T21:34:24.180Z,21.63
2023-02-05T21:36:54.005Z,22.27
2023-02-05T21:39:22.994Z,17.23
2023-02-05T21:41:53.248Z,27.13
2023-02-05T21:44:23.653Z,19.73
2023-02-05T21:46:53.271Z,19.23
2023-02-05T21:49:21.961Z,52.03
2023-02-05T21:51:53.157Z,49.07
2023-02-05T21:54:25.457Z,28.83
2023-02-05T21:56:54.657Z,44.10
2023-02-05T21:59:24.785Z,52.10
2023-02-05T22:01:53.629Z,49.07
2023-02-05T22:04:22.256Z,70.97
2023-02-05T22:06:51.889Z,39.40
2023-02-05T22:09:20.577Z,49.47
2023-02-05T22:11:50.912Z,46.60
2023-02-05T22:14:19.872Z,44.40
2023-02-05T22:16:50.283Z,40.93
2023-02-05T22:19:19.015Z,60.17
2023-02-05T22:21:47.693Z,41.37
2023-02-05T22:24:17.758Z,39.93
2023-02-05T22:26:47.814Z,34.17
2023-02-05T22:29:18.353Z,48.03
2023-02-05T22:31:52.779Z,44.53
2023-02-05T22:34:22.005Z,35.90
2023-02-05T22:36:50.493Z,42.17
2023-02-05T22:39:19.061Z,37.03
2023-02-05T22:41:47.581Z,43.67
2023-02-05T22:44:16.138Z,24.10
2023-02-05T22:46:45.617Z,29.10
2023-02-05T22:49:16.175Z,38.53
2023-02-05T22:51:45.385Z,30.63
2023-02-05T22:54:15.386Z,40.03
2023-02-05T22:56:44.330Z,24.33
2023-02-05T22:59:13.276Z,36.57
2023-02-05T23:01:42.102Z,23.50
2023-02-05T23:04:11.469Z,41.53
2023-02-05T23:06:43.113Z,38.73
2023-02-05T23:09:14.710Z,20.73
2023-02-05T23:11:43.901Z,38.07
2023-02-05T23:14:14.428Z,25.07
2023-02-05T23:16:45.033Z,38.20
2023-02-05T23:19:16.949Z,28.47
2023-02-05T23:21:47.455Z,24.50
2023-02-05T23:24:16.484Z,10.80
2023-02-05T23:26:47.377Z,22.57
2023-02-05T23:29:18.253Z,28.33
2023-02-05T23:31:47.225Z,23.00
2023-02-05T23:34:15.776Z,18.37
2023-02-05T23:36:44.467Z,26.80
2023-02-05T23:39:14.525Z,29.23
2023-02-05T23:41:43.049Z,37.80
2023-02-05T23:44:13.917Z,18.33
2023-02-05T23:46:44.242Z,22.37
2023-02-05T23:49:13.972Z,31.47
2023-02-05T23:51:43.206Z,19.23
2023-02-05T23:54:12.942Z,26.23
2023-02-05T23:56:46.241Z,16.43
2023-02-05T23:59:15.830Z,14.53
